createdAt,value
2022-10-17T04:08:26.988Z,51.22
2022-10-17T04:11:33.955Z,57.65
2022-10-17T04:14:03.697Z,57.92
2022-10-17T04:16:31.529Z,58.72
2022-10-17T04:19:02.969Z,62.90
2022-10-17T04:21:36.327Z,71.03
2022-10-17T04:24:09.601Z,63.50
2022-10-17T04:27:08.919Z,65.50
2022-10-17T04:29:40.188Z,66.43
2022-10-17T04:32:15.169Z,62.65
2022-10-17T04:34:52.960Z,63.55
2022-10-17T04:37:22.679Z,67.18
2022-10-17T04:39:52.059Z,72.30
2022-10-17T04:42:19.378Z,90.13
2022-10-17T04:44:47.136Z,93.40
2022-10-17T04:47:17.264Z,83.60
2022-10-17T04:49:45.856Z,86.07
2022-10-17T04:52:14.839Z,82.65
2022-10-17T04:54:48.448Z,85.88
2022-10-17T04:57:15.700Z,85.88
2022-10-17T04:59:51.657Z,96.53
2022-10-17T05:02:25.157Z,80.03
2022-10-17T05:04:53.661Z,75.03
2022-10-17T05:07:21.780Z,69.65
2022-10-17T05:09:59.080Z,75.32
2022-10-17T05:12:27.047Z,93.30
2022-10-17T05:14:55.203Z,103.30
2022-10-17T05:17:25.456Z,100.57
2022-10-17T05:19:53.108Z,98.18
2022-10-17T05:22:20.365Z,88.90
2022-10-17T05:24:48.465Z,97.43
2022-10-17T05:27:16.103Z,96.18
2022-10-17T05:29:43.359Z,91.15
2022-10-17T05:32:19.865Z,100.75
2022-10-17T05:34:47.810Z,96.10
2022-10-17T05:37:16.020Z,105.63
2022-10-17T05:39:51.375Z,108.53
2022-10-17T05:42:19.928Z,118.20
2022-10-17T05:44:48.491Z,134.98
2022-10-17T05:47:18.334Z,122.40
2022-10-17T05:49:49.941Z,138.75
2022-10-17T05:52:22.152Z,134.73
2022-10-17T05:55:00.528Z,142.65
2022-10-17T05:57:28.319Z,145.80
2022-10-17T05:59:57.047Z,193.57
2022-10-17T06:02:24.550Z,220.13
2022-10-17T06:04:53.123Z,208.73
2022-10-17T06:07:23.317Z,218.98
2022-10-17T06:09:50.879Z,239.68
2022-10-17T06:12:18.713Z,234.13
2022-10-17T06:14:47.245Z,249.65
2022-10-17T06:17:16.555Z,252.50
2022-10-17T06:19:45.134Z,206.07
2022-10-17T06:22:15.124Z,212.60
2022-10-17T06:24:43.297Z,165.75
2022-10-17T06:27:13.421Z,186.13
2022-10-17T06:29:41.777Z,202.23
2022-10-17T06:32:12.623Z,186.80
2022-10-17T06:34:43.847Z,206.70
2022-10-17T06:37:11.759Z,211.77
2022-10-17T06:39:40.959Z,198.23
2022-10-17T06:42:13.511Z,201.95
2022-10-17T06:45:02.572Z,209.77
2022-10-17T06:47:42.984Z,232.02
2022-10-17T06:50:40.713Z,210.80
2022-10-17T06:53:15.332Z,223.40
2022-10-17T06:55:53.948Z,221.60
2022-10-17T06:58:37.044Z,213.20
2022-10-17T07:01:23.277Z,205.52
2022-10-17T07:03:55.630Z,195.73
2022-10-17T07:06:26.953Z,194.60
2022-10-17T07:09:01.315Z,179.30
2022-10-17T07:11:29.176Z,191.30
2022-10-17T07:13:56.475Z,194.70
2022-10-17T07:16:24.467Z,223.77
2022-10-17T07:19:00.090Z,174.70
2022-10-17T07:21:27.493Z,178.57
2022-10-17T07:23:54.844Z,170.68
2022-10-17T07:26:22.757Z,170.50
2022-10-17T07:28:55.531Z,168.77
2022-10-17T07:34:00.869Z,192.32
2022-10-17T07:36:30.091Z,180.25
2022-10-17T07:39:00.028Z,183.98
2022-10-17T07:41:28.517Z,174.48
2022-10-17T07:43:55.976Z,168.45
2022-10-17T07:46:29.295Z,166.32
2022-10-17T07:48:56.674Z,173.82
2022-10-17T07:51:24.720Z,173.50
2022-10-17T07:53:52.049Z,167.18
2022-10-17T07:56:19.322Z,161.77
2022-10-17T07:58:48.246Z,176.25
2022-10-17T08:01:16.238Z,179.80
2022-10-17T08:03:45.021Z,169.48
2022-10-17T08:06:13.219Z,161.82
2022-10-17T08:08:41.149Z,169.73
2022-10-17T08:11:10.876Z,194.48
2022-10-17T08:13:40.463Z,187.57
2022-10-17T08:16:11.017Z,176.63
2022-10-17T08:18:39.910Z,191.55
2022-10-17T08:21:08.511Z,187.68
2022-10-17T08:23:36.582Z,191.48
2022-10-17T08:26:06.316Z,193.75
2022-10-17T08:28:36.083Z,194.05
2022-10-17T08:31:06.393Z,211.73
2022-10-17T08:33:34.023Z,206.20
2022-10-17T08:36:05.340Z,201.63
2022-10-17T08:38:35.610Z,193.85
2022-10-17T08:41:32.146Z,201.18
2022-10-17T08:44:18.118Z,189.75
2022-10-17T08:46:51.021Z,165.40
2022-10-17T08:49:33.921Z,173.07
2022-10-17T08:52:25.408Z,161.73
2022-10-17T08:54:52.821Z,151.85
2022-10-17T08:57:20.169Z,164.40
2022-10-17T08:59:52.114Z,166.80
2022-10-17T09:02:40.001Z,161.77
2022-10-17T09:05:22.529Z,161.65
2022-10-17T09:07:52.829Z,170.20
2022-10-17T09:10:55.984Z,158.70
2022-10-17T09:13:38.369Z,147.68
2022-10-17T09:16:11.723Z,139.52
2022-10-17T09:18:43.021Z,138.00
2022-10-17T09:21:10.634Z,140.90
2022-10-17T09:23:59.526Z,145.20
2022-10-17T09:26:42.069Z,151.98
2022-10-17T09:29:17.944Z,138.65
2022-10-17T09:32:00.155Z,130.55
2022-10-17T09:34:29.821Z,120.53
2022-10-17T09:37:00.009Z,129.90
2022-10-17T09:39:31.931Z,127.82
2022-10-17T09:42:01.476Z,129.90
2022-10-17T09:44:51.677Z,128.93
2022-10-17T09:47:22.590Z,133.40
2022-10-17T09:49:51.086Z,127.38
2022-10-17T09:52:30.090Z,115.05
2022-10-17T09:55:04.166Z,119.63
2022-10-17T09:58:02.302Z,125.82
2022-10-17T10:00:30.773Z,120.65
2022-10-17T10:03:25.939Z,122.68
2022-10-17T10:06:06.388Z,124.10
2022-10-17T10:08:51.499Z,117.07
2022-10-17T10:11:23.455Z,107.10
2022-10-17T10:13:51.244Z,115.15
2022-10-17T10:16:31.530Z,123.97
2022-10-17T10:18:59.187Z,129.38
2022-10-17T10:21:27.965Z,125.85
2022-10-17T10:24:10.479Z,126.63
2022-10-17T10:26:40.548Z,127.05
2022-10-17T10:29:34.194Z,121.35
2022-10-17T10:32:27.664Z,131.00
2022-10-17T10:35:00.406Z,122.32
2022-10-17T10:37:42.271Z,119.57
2022-10-17T10:40:35.145Z,126.75
2022-10-17T10:43:05.569Z,112.53
2022-10-17T10:45:47.546Z,119.03
2022-10-17T10:48:34.234Z,116.72
2022-10-17T10:51:04.723Z,114.32
2022-10-17T10:54:19.358Z,107.18
2022-10-17T10:56:53.493Z,110.40
2022-10-17T10:59:36.020Z,109.38
2022-10-17T11:02:21.954Z,109.30
2022-10-17T11:05:01.601Z,124.57
2022-10-17T11:08:04.206Z,118.78
2022-10-17T11:10:44.347Z,114.55
2022-10-17T11:13:29.017Z,102.82
2022-10-17T11:16:07.258Z,102.65
2022-10-17T11:18:46.720Z,96.28
2022-10-17T11:24:39.194Z,101.18
2022-10-17T11:27:08.092Z,106.85
2022-10-17T11:29:39.288Z,100.78
2022-10-17T11:32:25.999Z,108.82
2022-10-17T11:35:02.152Z,99.82
2022-10-17T11:37:42.897Z,101.95
2022-10-17T11:40:36.705Z,91.20
2022-10-17T11:43:17.641Z,89.13
2022-10-17T11:45:55.520Z,98.38
2022-10-17T11:48:36.925Z,102.65
2022-10-17T11:54:29.760Z,89.15
2022-10-17T11:57:34.787Z,95.07
2022-10-17T12:00:17.192Z,87.50
2022-10-17T12:03:00.666Z,89.00
2022-10-17T12:05:51.471Z,81.32
2022-10-17T12:08:45.329Z,81.03
2022-10-17T12:11:29.677Z,87.45
2022-10-17T12:13:57.528Z,83.38
2022-10-17T12:16:24.761Z,81.55
2022-10-17T12:19:21.475Z,80.13
2022-10-17T12:21:56.416Z,86.05
2022-10-17T12:24:35.344Z,89.55
2022-10-17T12:27:31.087Z,87.55
2022-10-17T12:30:16.309Z,93.90
2022-10-17T12:33:25.848Z,86.47
2022-10-17T12:36:27.253Z,88.78
2022-10-17T12:39:03.618Z,89.28
2022-10-17T12:41:51.308Z,88.40
2022-10-17T12:44:21.399Z,91.03
2022-10-17T12:46:51.396Z,81.82
2022-10-17T12:49:38.145Z,87.90
2022-10-17T12:52:17.376Z,84.78
2022-10-17T12:55:12.565Z,82.82
2022-10-17T12:58:02.570Z,79.10
2022-10-17T13:01:05.274Z,85.68
2022-10-17T13:03:44.358Z,82.38
2022-10-17T13:06:21.272Z,79.43
2022-10-17T13:09:03.474Z,82.45
2022-10-17T13:11:34.697Z,83.40
2022-10-17T13:14:09.239Z,88.47
2022-10-17T13:16:39.260Z,74.93
2022-10-17T13:19:18.938Z,79.43
2022-10-17T13:22:17.428Z,74.45
2022-10-17T13:24:45.243Z,73.13
2022-10-17T13:27:31.048Z,78.75
2022-10-17T13:30:00.756Z,69.47
2022-10-17T13:32:37.691Z,68.47
2022-10-17T13:35:07.250Z,73.05
2022-10-17T13:37:35.897Z,70.60
2022-10-17T13:40:17.466Z,64.43
2022-10-17T13:42:55.867Z,54.35
2022-10-17T13:47:59.856Z,53.80
2022-10-17T13:50:45.230Z,54.03
2022-10-17T13:53:12.803Z,55.95
2022-10-17T13:56:09.129Z,53.55
2022-10-17T13:58:43.323Z,57.22
2022-10-17T14:01:12.712Z,60.45
2022-10-17T14:03:49.795Z,55.83
2022-10-17T14:06:22.182Z,52.88
2022-10-17T14:08:58.401Z,55.75
2022-10-17T14:11:32.236Z,53.88
2022-10-17T14:14:03.175Z,50.10
2022-10-17T14:16:41.172Z,44.33
2022-10-17T14:19:30.132Z,53.90
2022-10-17T14:22:24.562Z,47.75
2022-10-17T14:24:53.411Z,56.17
2022-10-17T14:27:32.030Z,45.72
2022-10-17T14:30:02.640Z,50.50
2022-10-17T14:35:40.326Z,51.95
2022-10-17T14:37:59.273Z,50.65
2022-10-17T14:40:28.969Z,53.72
2022-10-17T14:42:59.134Z,50.55
2022-10-17T14:45:30.415Z,61.33
2022-10-17T14:48:03.995Z,52.97
2022-10-17T14:50:33.140Z,49.20
2022-10-17T14:53:21.098Z,48.83
2022-10-17T14:56:00.464Z,63.13
2022-10-17T14:58:33.684Z,57.03
2022-10-17T15:01:02.182Z,49.08
2022-10-17T15:03:30.014Z,59.70
2022-10-17T15:05:59.311Z,78.28
2022-10-17T15:08:27.080Z,59.80
2022-10-17T15:10:54.362Z,60.53
2022-10-17T15:13:31.241Z,64.72
2022-10-17T15:16:01.393Z,60.28
2022-10-17T15:18:28.590Z,56.95
2022-10-17T15:21:04.771Z,60.50
2022-10-17T15:23:34.216Z,60.60
2022-10-17T15:26:01.960Z,53.35
2022-10-17T15:28:29.851Z,56.58
2022-10-17T15:30:57.106Z,64.50
2022-10-17T15:33:24.412Z,58.65
2022-10-17T15:35:52.574Z,60.13
2022-10-17T15:38:20.152Z,62.10
2022-10-17T15:40:53.138Z,64.65
2022-10-17T15:43:20.398Z,57.03
2022-10-17T15:45:48.301Z,69.30
2022-10-17T15:48:24.377Z,69.00
2022-10-17T15:50:52.234Z,65.05
2022-10-17T15:53:19.580Z,58.85
2022-10-17T15:55:50.003Z,68.60
2022-10-17T15:58:19.740Z,60.63
2022-10-17T16:00:48.667Z,61.42
2022-10-17T16:03:16.449Z,59.85
2022-10-17T16:05:43.864Z,71.75
2022-10-17T16:08:11.240Z,64.53
2022-10-17T16:10:41.034Z,67.60
2022-10-17T16:13:17.877Z,68.00
2022-10-17T16:15:45.200Z,70.18
2022-10-17T16:18:12.660Z,61.95
2022-10-17T16:20:40.315Z,63.25
2022-10-17T16:23:08.436Z,64.53
2022-10-17T16:25:35.764Z,69.43
2022-10-17T16:28:04.118Z,70.18
2022-10-17T16:30:32.451Z,73.28
2022-10-17T16:33:00.251Z,68.30
2022-10-17T16:35:33.395Z,66.45
2022-10-17T16:38:06.743Z,75.60
2022-10-17T16:40:34.555Z,73.63
2022-10-17T16:43:02.380Z,80.63
2022-10-17T16:45:30.652Z,79.13
2022-10-17T16:47:57.945Z,69.78
2022-10-17T16:50:26.049Z,69.15
2022-10-17T16:52:53.408Z,72.22
2022-10-17T16:55:21.369Z,69.53
2022-10-17T16:57:49.438Z,70.43
2022-10-17T17:00:17.872Z,81.63
2022-10-17T17:02:47.881Z,72.97
2022-10-17T17:05:15.769Z,82.57
2022-10-17T17:07:43.546Z,78.72
2022-10-17T17:10:10.843Z,73.47
2022-10-17T17:12:38.080Z,78.80
2022-10-17T17:15:06.325Z,75.15
2022-10-17T17:17:49.561Z,81.88
2022-10-17T17:20:20.057Z,77.97
2022-10-17T17:22:48.788Z,74.80
2022-10-17T17:25:16.340Z,72.07
2022-10-17T17:27:43.639Z,87.13
2022-10-17T17:30:11.375Z,81.63
2022-10-17T17:32:38.629Z,94.03
2022-10-17T17:35:06.445Z,73.22
2022-10-17T17:37:34.252Z,95.38
2022-10-17T17:40:02.180Z,78.93
2022-10-17T17:42:29.917Z,85.35
2022-10-17T17:45:00.015Z,90.03
2022-10-17T17:47:29.643Z,85.40
2022-10-17T17:49:57.216Z,95.13
2022-10-17T17:52:24.516Z,89.95
2022-10-17T17:54:51.781Z,92.53
2022-10-17T17:57:19.308Z,84.53
2022-10-17T17:59:48.467Z,99.82
2022-10-17T18:02:16.256Z,90.40
2022-10-17T18:04:43.737Z,84.38
2022-10-17T18:07:10.976Z,100.07
2022-10-17T18:09:38.724Z,88.55
2022-10-17T18:12:05.960Z,94.18
2022-10-17T18:14:33.204Z,106.20
2022-10-17T18:17:00.468Z,98.68
2022-10-17T18:19:28.910Z,86.60
2022-10-17T18:21:56.809Z,88.68
2022-10-17T18:24:24.603Z,100.20
2022-10-17T18:26:55.956Z,108.47
2022-10-17T18:29:23.197Z,86.80
2022-10-17T18:31:50.436Z,96.03
2022-10-17T18:34:18.201Z,106.82
2022-10-17T18:36:45.604Z,114.20
2022-10-17T18:39:12.921Z,89.25
2022-10-17T18:41:40.773Z,95.38
2022-10-17T18:44:08.169Z,101.32
2022-10-17T18:46:40.619Z,112.25
2022-10-17T18:49:10.936Z,93.38
2022-10-17T18:51:38.802Z,98.72
2022-10-17T18:54:11.383Z,98.72
2022-10-17T18:56:39.160Z,102.63
2022-10-17T18:59:06.620Z,96.57
2022-10-17T19:01:34.328Z,90.47
2022-10-17T19:04:02.029Z,92.57
2022-10-17T19:06:31.897Z,86.57
2022-10-17T19:09:00.969Z,86.10
2022-10-17T19:11:30.509Z,106.68
2022-10-17T19:14:01.084Z,84.82
2022-10-17T19:16:35.391Z,90.30
2022-10-17T19:19:06.851Z,83.65
2022-10-17T19:21:34.725Z,85.30
2022-10-17T19:24:05.055Z,86.40
2022-10-17T19:26:36.293Z,92.22
2022-10-17T19:29:04.734Z,101.25
2022-10-17T19:31:34.338Z,81.85
2022-10-17T19:34:03.209Z,92.05
2022-10-17T19:36:34.057Z,91.25
2022-10-17T19:39:07.200Z,83.43
2022-10-17T19:41:36.439Z,86.07
2022-10-17T19:44:03.736Z,83.22
2022-10-17T19:46:32.060Z,96.43
2022-10-17T19:48:59.872Z,90.15
2022-10-17T19:51:28.943Z,89.00
2022-10-17T19:54:00.393Z,83.60
2022-10-17T19:56:30.568Z,130.05
2022-10-17T19:58:59.122Z,119.65
2022-10-17T20:01:29.592Z,127.80
2022-10-17T20:03:57.242Z,97.28
2022-10-17T20:06:24.708Z,88.97
2022-10-17T20:08:53.211Z,100.75
2022-10-17T20:11:24.192Z,102.07
2022-10-17T20:13:52.746Z,88.75
2022-10-17T20:16:22.884Z,95.47
2022-10-17T20:18:52.364Z,87.15
2022-10-17T20:21:23.150Z,96.05
2022-10-17T20:23:51.525Z,102.63
2022-10-17T20:26:33.505Z,120.07
2022-10-17T20:29:08.861Z,101.25
2022-10-17T20:34:04.705Z,99.30
2022-10-17T20:36:36.538Z,83.63
2022-10-17T20:39:04.808Z,76.10
2022-10-17T20:41:32.362Z,87.07
2022-10-17T20:43:59.583Z,91.78
2022-10-17T20:46:36.869Z,86.43
2022-10-17T20:49:07.368Z,86.93
2022-10-17T20:51:35.693Z,88.90
2022-10-17T20:54:03.730Z,92.93
2022-10-17T20:56:34.013Z,85.30
2022-10-17T20:59:05.739Z,82.57
2022-10-17T21:01:34.965Z,84.60
2022-10-17T21:04:27.026Z,88.53
2022-10-17T21:06:52.052Z,96.75
2022-10-17T21:09:20.181Z,82.05
2022-10-17T21:11:51.054Z,79.32
2022-10-17T21:14:18.545Z,85.22
2022-10-17T21:16:45.853Z,75.40
2022-10-17T21:19:14.907Z,83.55
2022-10-17T21:21:44.837Z,82.97
2022-10-17T21:24:16.738Z,73.20
2022-10-17T21:26:45.436Z,93.90
2022-10-17T21:29:14.006Z,84.50
2022-10-17T21:31:43.857Z,75.85
2022-10-17T21:34:14.133Z,88.30
2022-10-17T21:36:42.167Z,85.05
2022-10-17T21:39:11.773Z,87.80
2022-10-17T21:41:39.069Z,82.90
2022-10-17T21:44:18.206Z,82.90
2022-10-17T21:46:46.644Z,84.80
